createdAt,value
2023-05-05T00:01:42.538Z,13.40
2023-05-05T00:04:31.632Z,13.40
2023-05-05T00:07:20.317Z,13.60
2023-05-05T00:10:09.951Z,13.50
2023-05-05T00:12:58.828Z,13.40
2023-05-05T00:15:49.324Z,13.50
2023-05-05T00:18:39.416Z,13.40
2023-05-05T00:21:28.753Z,13.60
2023-05-05T00:24:17.402Z,13.50
2023-05-05T00:27:06.705Z,13.50
2023-05-05T00:29:55.402Z,13.50
2023-05-05T00:32:44.204Z,13.60
2023-05-05T00:35:34.349Z,13.40
2023-05-05T00:38:23.504Z,13.50
2023-05-05T00:41:12.229Z,13.40
2023-05-05T00:44:01.099Z,13.40
2023-05-05T00:46:49.932Z,13.40
2023-05-05T00:49:39.654Z,13.40
2023-05-05T00:52:30.138Z,13.40
2023-05-05T00:55:19.420Z,13.30
2023-05-05T00:58:08.345Z,13.40
2023-05-05T01:00:57.122Z,13.40
2023-05-05T01:03:46.159Z,13.50
2023-05-05T01:06:45.009Z,13.30
2023-05-05T01:09:41.251Z,13.40
2023-05-05T01:12:38.857Z,13.40
2023-05-05T01:15:33.648Z,13.40
2023-05-05T01:18:33.166Z,13.50
2023-05-05T01:21:27.644Z,13.40
2023-05-05T01:24:50.695Z,13.40
2023-05-05T01:27:51.274Z,13.40
2023-05-05T01:31:00.056Z,13.40
2023-05-05T01:33:54.426Z,13.30
2023-05-05T01:36:50.772Z,13.30
2023-05-05T01:39:42.105Z,13.30
2023-05-05T01:42:32.139Z,13.30
2023-05-05T01:45:26.158Z,13.30
2023-05-05T01:48:18.316Z,13.30
2023-05-05T01:51:09.286Z,13.10
2023-05-05T01:54:01.288Z,13.10
2023-05-05T01:56:51.788Z,13.20
2023-05-05T01:59:41.113Z,13.30
2023-05-05T02:02:32.072Z,13.30
2023-05-05T02:05:22.991Z,13.30
2023-05-05T02:08:13.564Z,13.30
2023-05-05T02:11:06.078Z,13.40
2023-05-05T02:13:55.848Z,13.40
2023-05-05T02:16:45.449Z,13.30
2023-05-05T02:19:40.421Z,13.30
2023-05-05T02:22:29.482Z,13.30
2023-05-05T02:25:19.680Z,13.30
2023-05-05T02:28:12.432Z,13.20
2023-05-05T02:31:02.226Z,13.30
2023-05-05T02:33:54.634Z,13.30
2023-05-05T02:36:46.018Z,13.20
2023-05-05T02:39:38.539Z,13.30
2023-05-05T02:42:39.924Z,13.30
2023-05-05T02:45:31.327Z,13.30
2023-05-05T02:48:20.332Z,13.20
2023-05-05T02:51:10.683Z,13.10
2023-05-05T02:54:00.276Z,13.10
2023-05-05T02:56:51.524Z,13.20
2023-05-05T02:59:58.097Z,13.20
2023-05-05T03:02:59.169Z,13.20
2023-05-05T03:05:55.498Z,13.20
2023-05-05T03:08:47.443Z,13.20
2023-05-05T03:11:40.703Z,13.40
2023-05-05T03:14:36.082Z,13.40
2023-05-05T03:17:29.099Z,13.50
2023-05-05T03:20:18.852Z,13.60
2023-05-05T03:23:10.462Z,13.40
2023-05-05T03:25:59.887Z,13.50
2023-05-05T03:28:55.642Z,13.50
2023-05-05T03:31:51.244Z,13.50
2023-05-05T03:34:41.797Z,13.50
2023-05-05T03:37:31.079Z,13.50
2023-05-05T03:40:27.188Z,13.50
2023-05-05T03:43:21.976Z,13.50
2023-05-05T03:46:10.942Z,13.50
2023-05-05T03:48:59.856Z,13.50
2023-05-05T03:51:50.943Z,13.60
2023-05-05T03:54:39.698Z,13.60
2023-05-05T03:57:28.771Z,13.60
2023-05-05T04:00:18.249Z,13.60
2023-05-05T04:03:08.009Z,13.60
2023-05-05T04:05:56.921Z,13.60
2023-05-05T04:08:47.522Z,13.60
2023-05-05T04:11:37.019Z,13.70
2023-05-05T04:14:26.015Z,13.80
2023-05-05T04:17:14.697Z,13.80
2023-05-05T04:20:04.826Z,13.80
2023-05-05T04:22:54.962Z,13.90
2023-05-05T04:25:45.938Z,13.90
2023-05-05T04:28:35.380Z,14.10
2023-05-05T04:31:24.300Z,14.00
2023-05-05T04:34:13.520Z,14.00
2023-05-05T04:37:02.452Z,14.10
2023-05-05T04:39:51.919Z,14.10
2023-05-05T04:42:42.298Z,14.20
2023-05-05T04:45:31.244Z,13.80
2023-05-05T04:48:20.988Z,13.10
2023-05-05T04:51:09.787Z,13.40
2023-05-05T04:53:59.565Z,13.30
2023-05-05T04:56:49.063Z,13.70
2023-05-05T04:59:39.153Z,14.00
2023-05-05T05:02:28.141Z,13.70
2023-05-05T05:05:17.071Z,13.40
2023-05-05T05:08:06.745Z,13.80
2023-05-05T05:10:55.475Z,13.90
2023-05-05T05:13:44.555Z,13.60
2023-05-05T05:16:34.661Z,13.50
2023-05-05T05:19:23.595Z,13.50
2023-05-05T05:22:12.361Z,13.50
2023-05-05T05:25:03.259Z,13.70
2023-05-05T05:28:02.264Z,13.70
2023-05-05T05:30:58.841Z,13.70
2023-05-05T05:33:48.963Z,13.50
2023-05-05T05:36:37.712Z,13.60
2023-05-05T05:39:27.016Z,13.50
2023-05-05T05:42:16.107Z,13.80
2023-05-05T05:45:05.445Z,14.00
2023-05-05T05:47:54.446Z,14.00
2023-05-05T05:50:45.041Z,14.00
2023-05-05T05:53:34.079Z,14.60
2023-05-05T05:56:23.193Z,14.80
2023-05-05T05:59:12.626Z,16.30
2023-05-05T06:02:03.365Z,16.20
2023-05-05T06:04:53.931Z,16.70
2023-05-05T06:07:44.565Z,16.50
2023-05-05T06:10:34.439Z,15.70
2023-05-05T06:13:34.271Z,15.50
2023-05-05T06:16:23.524Z,15.70
2023-05-05T06:19:12.524Z,15.50
2023-05-05T06:22:01.255Z,15.60
2023-05-05T06:24:51.396Z,15.80
2023-05-05T06:27:41.364Z,16.50
2023-05-05T06:30:30.118Z,18.40
2023-05-05T06:33:19.009Z,19.60
2023-05-05T06:36:08.104Z,18.60
2023-05-05T06:38:56.938Z,17.80
2023-05-05T06:41:47.073Z,17.30
2023-05-05T06:44:36.570Z,17.20
2023-05-05T06:47:25.442Z,17.20
2023-05-05T06:50:14.441Z,17.10
2023-05-05T06:53:03.511Z,16.40
2023-05-05T06:55:52.502Z,16.20
2023-05-05T06:58:42.708Z,16.60
2023-05-05T07:01:31.515Z,16.80
2023-05-05T07:04:21.462Z,16.90
2023-05-05T07:07:10.186Z,17.60
2023-05-05T07:09:58.980Z,18.00
2023-05-05T07:12:47.793Z,17.40
2023-05-05T07:15:38.139Z,17.50
2023-05-05T07:18:26.917Z,17.50
2023-05-05T07:21:15.774Z,17.70
2023-05-05T07:24:05.024Z,18.40
2023-05-05T07:26:53.948Z,18.50
2023-05-05T07:29:42.847Z,18.80
2023-05-05T07:32:33.273Z,19.30
2023-05-05T07:35:23.164Z,18.70
2023-05-05T07:38:11.984Z,19.30
2023-05-05T07:41:00.909Z,19.50
2023-05-05T07:43:49.726Z,19.50
2023-05-05T07:46:38.503Z,19.40
2023-05-05T07:49:28.689Z,19.10
2023-05-05T07:52:17.327Z,19.80
2023-05-05T07:55:06.766Z,20.00
2023-05-05T07:57:55.641Z,20.30
2023-05-05T08:00:45.019Z,20.30
2023-05-05T08:03:34.189Z,20.10
2023-05-05T08:06:25.305Z,20.70
2023-05-05T08:09:14.047Z,20.60
2023-05-05T08:12:03.610Z,21.00
2023-05-05T08:14:52.293Z,21.60
2023-05-05T08:17:48.960Z,21.30
2023-05-05T08:20:38.266Z,20.90
2023-05-05T08:23:28.462Z,21.30
2023-05-05T08:26:17.267Z,20.90
2023-05-05T08:29:06.160Z,21.20
2023-05-05T08:31:55.556Z,20.90
2023-05-05T08:34:44.433Z,21.30
2023-05-05T08:37:33.765Z,21.80
2023-05-05T08:40:30.390Z,22.10
2023-05-05T08:43:20.497Z,21.70
2023-05-05T08:46:12.863Z,21.90
2023-05-05T08:49:04.019Z,21.50
2023-05-05T08:51:55.454Z,21.90
2023-05-05T08:54:56.238Z,21.80
2023-05-05T08:57:53.082Z,21.30
2023-05-05T09:00:44.122Z,21.40
2023-05-05T09:03:33.857Z,21.50
2023-05-05T09:06:23.564Z,21.80
2023-05-05T09:09:12.870Z,22.00
2023-05-05T09:12:02.208Z,22.00
2023-05-05T09:14:52.381Z,21.60
2023-05-05T09:17:41.891Z,21.40
2023-05-05T09:20:36.135Z,21.80
2023-05-05T09:23:25.169Z,21.10
2023-05-05T09:26:14.481Z,21.50
2023-05-05T09:29:03.932Z,21.70
2023-05-05T09:32:05.966Z,22.50
2023-05-05T09:35:01.439Z,22.50
2023-05-05T09:37:50.264Z,22.50
2023-05-05T09:40:47.681Z,22.10
2023-05-05T09:43:52.968Z,22.30
2023-05-05T09:46:51.568Z,22.20
2023-05-05T09:49:41.868Z,22.80
2023-05-05T09:52:31.019Z,23.30
2023-05-05T09:55:19.915Z,23.60
2023-05-05T09:58:21.389Z,23.40
2023-05-05T10:01:23.512Z,24.20
2023-05-05T10:04:26.020Z,22.70
2023-05-05T10:07:25.257Z,23.20
2023-05-05T10:10:16.594Z,24.00
2023-05-05T10:13:05.634Z,25.30
2023-05-05T10:15:55.433Z,27.30
2023-05-05T10:18:47.540Z,28.00
2023-05-05T10:21:42.183Z,29.80
2023-05-05T10:24:40.090Z,30.60
2023-05-05T10:27:30.673Z,28.80
2023-05-05T10:30:24.236Z,24.90
2023-05-05T10:33:31.691Z,24.60
2023-05-05T10:36:21.729Z,25.40
2023-05-05T10:39:11.043Z,27.50
2023-05-05T10:42:03.493Z,26.30
2023-05-05T10:44:52.394Z,24.70
2023-05-05T10:47:41.948Z,25.20
2023-05-05T10:50:34.413Z,24.30
2023-05-05T10:53:27.371Z,24.10
2023-05-05T10:56:25.419Z,24.20
2023-05-05T10:59:43.185Z,23.60
2023-05-05T11:02:32.268Z,23.40
2023-05-05T11:05:22.776Z,23.70
2023-05-05T11:08:27.031Z,23.40
2023-05-05T11:11:16.279Z,23.20
2023-05-05T11:14:23.127Z,24.60
2023-05-05T11:17:44.246Z,25.00
2023-05-05T11:21:09.244Z,25.20
2023-05-05T11:24:30.128Z,25.90
2023-05-05T11:27:19.177Z,27.60
2023-05-05T11:30:11.955Z,29.70
2023-05-05T11:33:25.827Z,29.60
2023-05-05T11:36:18.047Z,29.00
2023-05-05T11:39:10.880Z,28.70
2023-05-05T11:42:24.680Z,27.10
2023-05-05T11:45:24.649Z,26.80
2023-05-05T11:48:26.187Z,27.10
2023-05-05T11:51:17.347Z,25.10
2023-05-05T11:54:06.380Z,24.20
2023-05-05T11:56:56.062Z,23.70
2023-05-05T11:59:56.313Z,23.20
2023-05-05T12:02:45.244Z,23.50
2023-05-05T12:05:36.424Z,22.10
2023-05-05T12:08:27.278Z,21.80
2023-05-05T12:11:16.123Z,21.50
2023-05-05T12:14:11.677Z,21.10
2023-05-05T12:17:02.563Z,22.00
2023-05-05T12:19:53.500Z,24.20
2023-05-05T12:22:42.320Z,24.60
2023-05-05T12:25:39.139Z,26.40
2023-05-05T12:28:45.460Z,24.30
2023-05-05T12:31:37.801Z,23.10
2023-05-05T12:34:27.463Z,22.20
2023-05-05T12:37:19.180Z,21.30
2023-05-05T12:40:09.935Z,20.90
2023-05-05T12:43:00.369Z,20.30
2023-05-05T12:45:49.574Z,20.00
2023-05-05T12:48:39.973Z,19.30
2023-05-05T12:51:28.784Z,19.50
2023-05-05T12:54:17.574Z,19.30
2023-05-05T12:57:12.899Z,19.70
2023-05-05T13:00:14.728Z,19.80
2023-05-05T13:03:04.908Z,20.00
2023-05-05T13:05:53.644Z,19.40
2023-05-05T13:08:45.262Z,19.40
2023-05-05T13:11:37.753Z,18.70
2023-05-05T13:14:26.511Z,18.40
2023-05-05T13:17:17.012Z,18.70
2023-05-05T13:20:06.819Z,18.50
2023-05-05T13:22:55.645Z,18.80
2023-05-05T13:25:44.387Z,19.00
2023-05-05T13:28:33.358Z,18.60
2023-05-05T13:31:22.159Z,19.00
2023-05-05T13:34:12.685Z,19.20
2023-05-05T13:37:01.725Z,18.40
2023-05-05T13:39:50.535Z,18.20
2023-05-05T13:42:39.275Z,18.20
2023-05-05T13:45:27.999Z,18.30
2023-05-05T13:48:16.769Z,18.00
2023-05-05T13:51:06.981Z,18.00
2023-05-05T13:53:55.713Z,17.60
2023-05-05T13:56:44.536Z,17.70
2023-05-05T13:59:33.471Z,17.50
2023-05-05T14:02:22.297Z,17.00
2023-05-05T14:05:11.330Z,16.90
2023-05-05T14:08:01.434Z,16.70
2023-05-05T14:10:52.105Z,16.80
2023-05-05T14:13:41.002Z,16.80
2023-05-05T14:16:29.710Z,16.80
2023-05-05T14:19:18.384Z,17.10
2023-05-05T14:22:07.303Z,17.20
2023-05-05T14:24:57.573Z,17.20
2023-05-05T14:27:46.334Z,17.30
2023-05-05T14:30:35.044Z,16.80
2023-05-05T14:33:23.727Z,16.80
2023-05-05T14:36:12.698Z,16.90
2023-05-05T14:39:01.339Z,16.30
2023-05-05T14:41:51.600Z,16.20
2023-05-05T14:44:40.350Z,16.00
2023-05-05T14:47:29.041Z,16.10
2023-05-05T14:50:17.806Z,16.50
2023-05-05T14:53:06.741Z,16.40
2023-05-05T14:55:56.051Z,16.20
2023-05-05T14:58:47.679Z,16.30
2023-05-05T15:01:37.857Z,15.70
2023-05-05T15:04:26.683Z,15.60
2023-05-05T15:07:15.493Z,15.90
2023-05-05T15:10:04.802Z,15.80
2023-05-05T15:12:54.062Z,15.80
2023-05-05T15:15:45.141Z,15.60
2023-05-05T15:18:34.043Z,15.70
2023-05-05T15:21:22.832Z,15.70
2023-05-05T15:24:11.597Z,15.80
2023-05-05T15:27:00.318Z,15.70
2023-05-05T15:29:49.677Z,15.50
2023-05-05T15:32:39.846Z,15.60
2023-05-05T15:35:28.696Z,15.30
2023-05-05T15:38:17.405Z,15.30
2023-05-05T15:41:08.272Z,15.40
2023-05-05T15:43:57.159Z,15.30
2023-05-05T15:46:46.744Z,15.30
2023-05-05T15:49:37.792Z,15.60
2023-05-05T15:52:26.509Z,15.70
2023-05-05T15:55:15.414Z,15.60
2023-05-05T15:58:04.310Z,15.50
2023-05-05T16:00:53.067Z,15.40
2023-05-05T16:03:42.125Z,15.30
2023-05-05T16:06:32.435Z,15.30
2023-05-05T16:09:21.081Z,15.10
2023-05-05T16:12:10.366Z,15.10
2023-05-05T16:14:59.401Z,15.40
2023-05-05T16:17:48.187Z,15.30
2023-05-05T16:20:37.289Z,15.10
2023-05-05T16:23:27.489Z,15.20
2023-05-05T16:26:16.329Z,15.10
2023-05-05T16:29:05.020Z,15.00
2023-05-05T16:31:53.927Z,15.10
2023-05-05T16:34:42.801Z,15.10
2023-05-05T16:37:31.567Z,15.10
2023-05-05T16:40:22.174Z,14.90
2023-05-05T16:43:10.951Z,15.00
2023-05-05T16:45:59.957Z,15.00
2023-05-05T16:48:48.776Z,14.90
2023-05-05T16:51:40.339Z,14.70
2023-05-05T16:54:29.070Z,14.80
2023-05-05T16:57:19.150Z,14.70
2023-05-05T17:00:09.349Z,14.60
2023-05-05T17:02:58.748Z,14.60
2023-05-05T17:05:50.160Z,14.60
2023-05-05T17:08:39.261Z,14.50
2023-05-05T17:11:28.033Z,14.80
2023-05-05T17:14:18.685Z,14.70
2023-05-05T17:17:08.143Z,14.30
2023-05-05T17:19:56.884Z,14.50
2023-05-05T17:22:46.632Z,14.30
2023-05-05T17:25:35.391Z,14.30
2023-05-05T17:28:24.216Z,14.30
2023-05-05T17:31:14.366Z,14.50
2023-05-05T17:34:03.381Z,14.60
2023-05-05T17:36:52.110Z,14.50
2023-05-05T17:39:40.905Z,14.70
2023-05-05T17:42:33.177Z,14.60
2023-05-05T17:45:21.911Z,14.40
2023-05-05T17:48:12.003Z,14.30
2023-05-05T17:51:00.968Z,14.30
2023-05-05T17:53:49.808Z,14.20
2023-05-05T17:56:38.594Z,14.00
2023-05-05T17:59:27.338Z,13.80
2023-05-05T18:02:16.084Z,13.80
2023-05-05T18:05:07.199Z,13.90
2023-05-05T18:07:56.052Z,14.00
2023-05-05T18:10:44.919Z,14.00
2023-05-05T18:13:33.919Z,13.90
2023-05-05T18:16:22.863Z,13.80
2023-05-05T18:19:11.726Z,13.80
2023-05-05T18:22:02.106Z,13.60
2023-05-05T18:24:50.968Z,13.70
2023-05-05T18:27:41.301Z,13.50
2023-05-05T18:30:30.102Z,13.60
2023-05-05T18:33:18.885Z,13.50
2023-05-05T18:36:07.912Z,13.50
2023-05-05T18:38:58.095Z,13.60
2023-05-05T18:41:46.970Z,13.70
2023-05-05T18:44:36.022Z,13.50
2023-05-05T18:47:24.787Z,13.60
2023-05-05T18:50:13.728Z,13.50
2023-05-05T18:53:02.596Z,13.30
2023-05-05T18:55:52.714Z,13.20
2023-05-05T18:58:41.632Z,13.40
2023-05-05T19:01:30.979Z,13.50
2023-05-05T19:04:30.785Z,13.50
2023-05-05T19:07:33.723Z,13.50
2023-05-05T19:10:23.994Z,13.50
2023-05-05T19:13:14.192Z,13.30
2023-05-05T19:16:03.541Z,13.20
2023-05-05T19:18:54.235Z,13.10
2023-05-05T19:21:43.106Z,13.40
2023-05-05T19:24:32.139Z,13.40
2023-05-05T19:27:21.706Z,13.10
2023-05-05T19:30:12.852Z,12.90
2023-05-05T19:33:01.676Z,13.20
2023-05-05T19:35:50.664Z,13.30
2023-05-05T19:38:44.362Z,13.40
2023-05-05T19:41:35.360Z,13.40
2023-05-05T19:44:24.128Z,13.30
2023-05-05T19:47:14.196Z,13.20
2023-05-05T19:50:03.185Z,13.20
2023-05-05T19:52:51.898Z,13.00
2023-05-05T19:55:40.590Z,13.30
2023-05-05T19:58:29.279Z,13.20
2023-05-05T20:01:18.063Z,13.20
2023-05-05T20:04:08.194Z,13.10
2023-05-05T20:06:57.383Z,13.20
2023-05-05T20:09:46.111Z,13.00
2023-05-05T20:12:34.814Z,13.00
2023-05-05T20:15:23.777Z,12.90
2023-05-05T20:18:12.521Z,12.90
2023-05-05T20:21:03.514Z,13.10
2023-05-05T20:23:54.622Z,13.10
2023-05-05T20:26:43.326Z,13.10
2023-05-05T20:29:32.281Z,13.10
2023-05-05T20:32:21.046Z,12.90
2023-05-05T20:35:12.934Z,13.00
2023-05-05T20:38:03.787Z,12.90
2023-05-05T20:40:53.312Z,12.80
2023-05-05T20:43:42.103Z,12.80
2023-05-05T20:46:31.086Z,12.60
2023-05-05T20:49:19.852Z,12.80
2023-05-05T20:52:08.839Z,12.70
2023-05-05T20:54:59.044Z,12.70
2023-05-05T20:57:47.740Z,12.60
2023-05-05T21:00:36.689Z,12.80
2023-05-05T21:03:25.532Z,12.80
2023-05-05T21:06:14.327Z,12.80
2023-05-05T21:09:03.446Z,12.70
2023-05-05T21:11:53.715Z,12.80
2023-05-05T21:14:44.667Z,12.70
2023-05-05T21:17:33.755Z,12.70
2023-05-05T21:20:22.705Z,12.60
2023-05-05T21:23:11.966Z,12.60
2023-05-05T21:26:00.945Z,12.60
2023-05-05T21:28:51.062Z,12.40
2023-05-05T21:31:39.737Z,12.30
2023-05-05T21:34:28.493Z,12.20
2023-05-05T21:37:17.149Z,12.50
2023-05-05T21:40:07.319Z,12.40
2023-05-05T21:42:56.091Z,12.30
2023-05-05T21:45:46.344Z,12.30
2023-05-05T21:48:35.051Z,12.30
2023-05-05T21:51:23.832Z,12.50
2023-05-05T21:54:12.557Z,12.40
2023-05-05T21:57:02.924Z,12.30
2023-05-05T21:59:51.747Z,12.30
2023-05-05T22:02:42.157Z,12.40
2023-05-05T22:05:31.109Z,12.20
2023-05-05T22:08:20.675Z,12.30
2023-05-05T22:11:09.577Z,12.30
2023-05-05T22:13:58.429Z,12.40
2023-05-05T22:16:47.431Z,12.00
2023-05-05T22:19:37.738Z,12.30
2023-05-05T22:22:26.591Z,12.40
2023-05-05T22:25:15.442Z,12.20
2023-05-05T22:28:04.321Z,12.20
2023-05-05T22:30:53.035Z,12.20
2023-05-05T22:33:41.745Z,12.20
2023-05-05T22:36:32.376Z,12.30
2023-05-05T22:39:21.476Z,12.20
2023-05-05T22:42:10.339Z,12.10
2023-05-05T22:44:59.153Z,11.90
2023-05-05T22:47:47.908Z,11.80
2023-05-05T22:50:36.903Z,11.70
2023-05-05T22:53:27.121Z,11.70
2023-05-05T22:56:15.960Z,11.80
2023-05-05T22:59:05.670Z,11.50
2023-05-05T23:01:54.397Z,11.60
2023-05-05T23:04:44.215Z,11.50
2023-05-05T23:07:33.353Z,11.50
2023-05-05T23:10:23.420Z,11.60
2023-05-05T23:13:12.127Z,11.50
2023-05-05T23:16:01.085Z,11.50
2023-05-05T23:18:49.793Z,11.30
2023-05-05T23:21:49.328Z,11.40
2023-05-05T23:24:41.192Z,11.20
2023-05-05T23:27:31.313Z,11.40
2023-05-05T23:30:20.258Z,11.30
2023-05-05T23:33:09.047Z,11.30
2023-05-05T23:35:57.901Z,11.10
2023-05-05T23:38:46.968Z,11.10
2023-05-05T23:41:35.724Z,11.00
2023-05-05T23:44:25.901Z,10.80
2023-05-05T23:47:14.642Z,10.70
2023-05-05T23:50:03.892Z,10.80
2023-05-05T23:52:53.027Z,10.80
2023-05-05T23:55:41.748Z,10.80
2023-05-05T23:58:30.447Z,10.80
